• Join FlightAware (Why Join?)
  • Login
  • US Flag 
01:59AM EDT


 

Airport Tracker/Info


-or-


 

Live Flight TrackerFlight Track Log ✈ N240JK ✈ 22-Jun-2013 ✈ KPIE - KUES

Flight Track Log - Related Links

Times and Time Zones

All times are in EDT time to prevent confusion due to time zone crossing. See the N240JK flight status page for this flight to view local times or setup timezone preferences in your user account.

Time Position Orientation Groundspeed Altitude Reporting Facility
EDT Latitude Longitude Course Direction KTS MPH feet Rate Location/Type
06:46PM 28.5354 -82.3764 30° Northeast  Level FlightAware Approximate
06:47PM 28.6433 -82.3284 24° Northeast  Level FlightAware Approximate
06:48PM 28.7506 -82.2747 24° Northeast  Level FlightAware Approximate
06:49PM 28.8578 -82.2252 16° North  Level FlightAware Approximate
06:50PM 28.9635 -82.1688 30° Northeast  Level FlightAware Approximate
06:51PM 29.0730 -82.1211 21° North  Level FlightAware Approximate
06:52PM 29.1807 -82.0680 24° Northeast  Level FlightAware Approximate
06:52PM 28.1039 -82.7914 26° Northeast 409 471 7,900  Level Jacksonville Center
06:53PM 29.2881 -82.0143 24° Northeast  Level FlightAware Approximate
06:53PM 28.1811 -82.7961 357° North 334 384 11,300  Level Jacksonville Center
06:54PM 29.3970 -81.9682 24° Northeast  Level FlightAware Approximate
06:54PM 28.2772 -82.7958 360° North 323 372 12,000  Level Jacksonville Center
06:55PM 29.5017 -81.9104 21° North  Level FlightAware Approximate
06:55PM 28.3814 -82.7981 359° North 345 397 13,400  Level Jacksonville Center
06:56PM 29.6106 -81.8606 26° Northeast  Level FlightAware Approximate
06:56PM 28.4858 -82.7839 North 364 419 16,300  Level Jacksonville Center
06:57PM 29.7156 -81.8006 26° Northeast  Level FlightAware Approximate
06:57PM 28.5756 -82.7175 33° Northeast 364 419 19,100  Level Jacksonville Center
06:58PM 28.6631 -82.6583 31° Northeast 364 419 21,600 2,280 Climbing Jacksonville Center
06:59PM 28.7653 -82.5775 35° Northeast 376 433 23,700 1,800 Climbing Jacksonville Center
07:00PM 28.8358 -82.4658 54° Northeast 400 460 25,200 1,140 Climbing Jacksonville Center
07:01PM 28.9022 -82.3469 57° Northeast 424 488 26,000 900 Climbing Jacksonville Center
07:02PM 28.9622 -82.2353 58° Northeast 444 511 27,100 1,500 Climbing Jacksonville Center
07:03PM 29.0283 -82.1114 59° Northeast 450 518 29,000 1,920 Climbing Jacksonville Center
07:04PM 29.0964 -81.9919 57° Northeast 450 518 31,000 1,800 Climbing Jacksonville Center
07:05PM 29.1747 -81.8772 52° Northeast 450 518 32,600 1,740 Climbing Jacksonville Center
07:06PM 29.2933 -81.8139 25° Northeast 444 511 34,500 1,860 Climbing Jacksonville Center
07:07PM 29.4097 -81.7578 23° Northeast 444 511 36,400 1,980 Climbing Jacksonville Center
07:08PM 29.5261 -81.7017 23° Northeast 444 511 38,500 2,040 Climbing Jacksonville Center
07:09PM 29.6403 -81.6453 23° Northeast 444 511 40,500 1,200 Climbing Jacksonville Center
07:10PM 29.7547 -81.5911 22° Northeast 438 504 41,000 240 Climbing Jacksonville Center
07:11PM 29.8667 -81.5344 24° Northeast 432 497 41,000  Level Jacksonville Center
07:12PM 29.9789 -81.4825 22° Northeast 432 497 41,000  Level Jacksonville Center
07:13PM 30.0911 -81.4281 23° Northeast 432 497 41,000  Level Jacksonville Center
07:14PM 30.2053 -81.3736 22° Northeast 432 497 41,000  Level Jacksonville Center
07:15PM 30.3194 -81.3189 22° Northeast 432 497 41,000  Level Jacksonville Center
07:16PM 30.4356 -81.2614 23° Northeast 432 497 41,000  Level Jacksonville Center
07:17PM 30.5539 -81.2064 22° Northeast 438 504 41,000  Level Jacksonville Center
07:18PM 30.6722 -81.1511 22° Northeast 443 510 41,000  Level Jacksonville Center
07:19PM 30.7861 -81.0936 23° Northeast 443 510 41,000  Level Jacksonville Center
07:20PM 30.9025 -81.0403 21° North 448 516 41,000  Level Jacksonville Center
07:21PM 31.0275 -81.0233 North 443 510 41,000  Level Jacksonville Center
07:22PM 31.1594 -81.0644 345° North 436 502 41,000  Level Jacksonville Center
07:23PM 31.2750 -81.1108 341° North 435 501 41,000  Level Jacksonville Center
07:24PM 31.3883 -81.1500 344° North 435 501 41,000  Level Jacksonville Center
07:25PM 31.4933 -81.1919 341° North 430 495 41,000  Level Jacksonville Center
07:26PM 31.6192 -81.2433 341° North 430 495 41,000  Level Jacksonville Center
07:27PM 31.7347 -81.2878 342° North 430 495 41,000  Level Jacksonville Center
07:28PM 31.8394 -81.3275 342° North 430 495 41,000 -60 Level Jacksonville Center
07:29PM 31.9569 -81.3719 342° North 432 497 40,900  Descending Jacksonville Center
07:30PM 32.0703 -81.4217 340° North 435 501 41,000  Climbing Jacksonville Center
07:31PM 32.2003 -81.4736 341° North 443 510 41,000  Level Jacksonville Center
07:32PM 32.3178 -81.5158 343° North 437 503 41,000  Level Jacksonville Center
07:33PM 32.4225 -81.5586 341° North 437 503 41,000  Level Jacksonville Center
07:34PM 32.5483 -81.6061 342° North 432 497 41,000  Level Jacksonville Center
07:36PM 32.7322 -81.6781 342° North 433 498 41,000  Level Atlanta Center
07:37PM 32.8478 -81.7244 341° North 433 498 41,000  Level Atlanta Center
07:38PM 32.9633 -81.7711 341° North 433 498 41,000  Level Atlanta Center
07:39PM 33.0792 -81.8150 342° North 428 493 41,000  Level Atlanta Center
07:40PM 33.1906 -81.8594 342° North 428 493 41,000  Level Atlanta Center
07:41PM 33.3061 -81.9061 341° North 428 493 41,000  Level Atlanta Center
07:42PM 33.4217 -81.9506 342° North 428 493 41,000  Level Atlanta Center
07:43PM 33.5353 -81.9978 341° North 428 493 41,000  Level Atlanta Center
07:44PM 33.6550 -82.0447 342° North 433 498 41,000  Level Atlanta Center
07:45PM 33.7831 -82.0967 341° North 438 504 41,000  Level Atlanta Center
07:46PM 33.9006 -82.1417 342° North 438 504 41,000  Level Atlanta Center
07:47PM 34.0203 -82.1942 340° North 443 510 41,000  Level Atlanta Center
07:48PM 34.1381 -82.2419 341° North 443 510 41,000  Level Atlanta Center
07:49PM 34.2556 -82.2922 341° North 448 516 41,000  Level Atlanta Center
07:50PM 34.3711 -82.3425 340° North 448 516 41,000  Level Atlanta Center
07:51PM 34.4908 -82.3906 342° North 448 516 41,000  Level Atlanta Center
07:52PM 34.6103 -82.4411 341° North 448 516 41,000  Level Atlanta Center
07:53PM 34.7194 -82.4847 342° North 457 526 41,000  Level Atlanta Center
07:54PM 34.8431 -82.5381 341° North 457 526 41,000  Level Atlanta Center
07:55PM 34.9606 -82.5892 340° North 457 526 41,000  Level Atlanta Center
07:56PM 35.0822 -82.6403 341° North 457 526 41,000  Level Atlanta Center
07:57PM 35.2039 -82.6917 341° North 457 526 41,000  Level Atlanta Center
07:58PM 35.3256 -82.7431 341° North 457 526 41,000  Level Atlanta Center
07:59PM 35.4469 -82.7947 341° North 457 526 41,000  Level Atlanta Center
08:00PM 35.5811 -82.8514 341° North 452 520 41,000  Level Atlanta Center
08:01PM 35.7006 -82.9033 341° North 452 520 41,000  Level Atlanta Center
08:03PM 35.9653 -83.0144 341° North 462 532 41,000  Level Indianapolis Center
08:04PM 36.0842 -83.0667 340° North 453 521 41,000  Level Indianapolis Center
08:05PM 36.2072 -83.1200 341° North 463 533 41,000  Level Indianapolis Center
08:06PM 36.3297 -83.1733 341° North 463 533 41,000  Level Indianapolis Center
08:07PM 36.4503 -83.2261 341° North 458 527 41,000  Level Indianapolis Center
08:08PM 36.5933 -83.2900 340° North 464 534 41,000  Level Indianapolis Center
08:09PM 36.7150 -83.3436 341° North 460 529 41,000  Level Indianapolis Center
08:10PM 36.8394 -83.3758 348° North 455 524 41,000  Level Indianapolis Center
08:11PM 36.9636 -83.4028 350° North 448 516 41,000  Level Indianapolis Center
08:12PM 37.0850 -83.4322 349° North 443 510 41,000  Level Indianapolis Center
08:13PM 37.2072 -83.4642 348° North 443 510 41,000  Level Indianapolis Center
08:14PM 37.3286 -83.4917 350° North 442 509 41,000  Level Indianapolis Center
08:15PM 37.4511 -83.5194 350° North 443 510 41,000  Level Indianapolis Center
08:16PM 37.5692 -83.5664 343° North 444 511 41,000  Level Indianapolis Center
08:17PM 37.6850 -83.6214 339° North 444 511 41,000  Level Indianapolis Center
08:18PM 37.8006 -83.6772 339° North 443 510 41,000  Level Indianapolis Center
08:19PM 37.9189 -83.7325 340° North 450 518 41,000  Level Indianapolis Center
08:20PM 38.0342 -83.7892 339° North 444 511 41,000  Level Indianapolis Center
08:21PM 38.1697 -83.8564 339° North 446 513 41,000  Level Indianapolis Center
08:22PM 38.2858 -83.9136 339° North 447 514 41,000  Level Indianapolis Center
08:23PM 38.4025 -83.9697 339° North 448 516 41,000  Level Indianapolis Center
08:24PM 38.5192 -84.0289 338° Northwest 449 517 41,000  Level Indianapolis Center
08:25PM 38.6369 -84.0878 339° North 452 520 41,000  Level Indianapolis Center
08:26PM 38.7492 -84.1433 339° North 453 521 41,000  Level Indianapolis Center
08:27PM 38.8686 -84.2028 339° North 454 522 41,000  Level Indianapolis Center
08:28PM 38.9864 -84.2611 339° North 450 518 41,000  Level Indianapolis Center
08:29PM 39.1050 -84.3208 339° North 452 520 41,000  Level Indianapolis Center
08:30PM 39.2231 -84.3808 339° North 451 519 41,000  Level Indianapolis Center
08:31PM 39.3419 -84.4408 339° North 452 520 41,000  Level Indianapolis Center
08:32PM 39.4600 -84.5003 339° North 450 518 41,000  Level Indianapolis Center
08:33PM 39.6008 -84.5703 339° North 456 525 41,000  Level Indianapolis Center
08:35PM 39.7194 -84.6314 338° Northwest 454 522 41,000  Level Indianapolis Center
08:36PM 39.8375 -84.6919 339° North 453 521 41,000  Level Indianapolis Center
08:37PM 39.9561 -84.7531 338° Northwest 454 522 41,000  Level Indianapolis Center
08:38PM 40.0756 -84.8150 338° Northwest 455 524 41,000  Level Indianapolis Center
08:39PM 40.1961 -84.8764 339° North 459 528 41,000  Level Indianapolis Center
08:40PM 40.3083 -84.9356 338° Northwest 455 524 41,000  Level Indianapolis Center
08:41PM 40.4256 -84.9967 338° Northwest 456 525 41,000  Level Indianapolis Center
08:42PM 40.5411 -85.0583 338° Northwest 453 521 41,000 -60 Level Indianapolis Center
08:43PM 40.6622 -85.1039 344° North 453 521 40,900 -600 Descending Indianapolis Center
08:44PM 40.7819 -85.1478 344° North 448 516 39,800 -1,140 Descending Indianapolis Center
08:45PM 40.9014 -85.1906 345° North 447 514 38,700 -900 Descending Indianapolis Center
08:46PM 41.0483 -85.2433 345° North 456 525 38,000 -660 Descending Indianapolis Center
08:47PM 41.1722 -85.2881 345° North 461 531 37,400 -780 Descending Indianapolis Center
08:48PM 41.2961 -85.3322 345° North 461 531 36,500 -1,320 Descending Indianapolis Center
08:49PM 41.4200 -85.3789 344° North 463 533 34,800 -1,860 Descending Indianapolis Center
08:50PM 41.5436 -85.4231 345° North 461 531 32,800 -1,380 Descending Indianapolis Center
08:51PM 41.6694 -85.4708 344° North 469 540 32,000 -360 Descending Indianapolis Center
08:52PM 41.8444 -85.5372 344° North 475 547 32,000  Level Chicago Center
08:53PM 41.9717 -85.5839 345° North 474 545 32,000  Level Chicago Center
08:54PM 42.1114 -85.6367 344° North 477 549 32,000  Level Chicago Center
08:55PM 42.2386 -85.6836 345° North 475 547 32,000  Level Chicago Center
08:56PM 42.3661 -85.7306 345° North 479 551 32,000  Level Chicago Center
08:57PM 42.4536 -85.8597 313° West 472 543 32,000 -420 Level Chicago Center
08:58PM 42.5328 -85.9978 308° West 466 536 31,200 -1,440 Descending Chicago Center
08:59PM 42.6150 -86.1361 309° West 469 540 29,100 -2,160 Descending Chicago Center
09:00PM 42.6989 -86.2731 310° West 467 537 26,800 -2,580 Descending Chicago Center
09:01PM 42.7975 -86.4336 310° West 467 537 23,900 -2,580 Descending Chicago Center
09:02PM 42.8758 -86.5667 309° West 452 520 21,600 -2,340 Descending Chicago Center
09:03PM 42.9556 -86.6983 310° West 438 504 19,200 -2,220 Descending Chicago Center
09:04PM 43.0294 -86.8247 309° West 432 497 17,100 -2,160 Descending Chicago Center
09:06PM 43.1011 -86.9444 309° West 411 473 14,800 -2,220 Descending Chicago Center
09:07PM 43.1603 -87.0672 303° West 407 468 12,600 -2,100 Descending Chicago Center
09:08PM 43.1536 -87.2036 266° West 374 430 10,600 -1,320 Descending Chicago Center
09:09PM 43.1483 -87.3383 267° West 358 412 10,000 -300 Descending Chicago Center
09:10PM 43.1450 -87.4844 268° West 329 379 10,000 -240 Level Chicago Center
09:11PM 43.1400 -87.6072 267° West 322 371 9,600 -960 Descending Chicago Center
09:12PM 43.1378 -87.7142 268° West 287 330 8,100 -1,500 Descending Chicago Center
09:13PM 43.1333 -87.8086 266° West 253 291 6,600 -1,080 Descending Chicago Center
09:14PM 43.1303 -87.9011 267° West 247 284 6,000 -300 Descending Chicago Center
09:15PM 43.1267 -87.9925 267° West 242 278 6,000 -720 Level Chicago Center
09:16PM 43.1244 -88.0789 268° West 234 269 4,600 -1,020 Descending Chicago Center
09:17PM 43.1203 -88.1700 266° West 217 250 4,000 -300 Descending Chicago Center
09:18PM 43.1178 -88.2450 267° West 206 237 4,000  Level Chicago Center
09:19PM 43.1286 -88.3186 281° West 203 234 4,000 -240 Level Chicago Center
09:20PM 43.1456 -88.3900 288° West 202 232 3,600 -600 Descending Chicago Center
09:21PM 43.1106 -88.4181 210° Southwest 175 201 2,800 -420 Descending Chicago Center
09:22PM 43.0692 -88.3931 156° South 178 205 2,800 -360 Level Chicago Center
09:23PM 43.0547 -88.3261 106° East 187 215 2,100 -780 Descending Chicago Center
09:24PM 43.0472 -88.2728 101° East 163 188 1,300 -840 Descending Chicago Center